Time;durP1;ratioP1;P1;durP2;ratioP2;P2;SDS_P1;SDS_P2;PMS_P1;PMS_P2;Temp;Humidity;BMP_temperature;BMP_pressure;BME280_temperature;BME280_humidity;BME280_pressure;Samples;Min_cycle;Max_cycle;Signal;HPM_P1;HPM_P2
2022/11/20 00:01:09;;;;;;;22.87;13.28;;;;;;;-4.82;100.00;99998.20;1725420;82;20150;-69
2022/11/20 00:03:35;;;;;;;23.20;13.15;;;;;;;-4.86;100.00;100002.19;1720865;82;21000;-69
2022/11/20 00:06:03;;;;;;;22.37;13.72;;;;;;;-4.86;100.00;100004.84;1716526;82;21055;-69
2022/11/20 00:08:30;;;;;;;21.40;12.82;;;;;;;-4.85;100.00;100003.82;1724838;82;21035;-69
2022/11/20 00:10:56;;;;;;;25.52;14.78;;;;;;;-4.85;100.00;100014.45;1713017;82;21604;-68
2022/11/20 00:13:23;;;;;;;27.82;14.15;;;;;;;-4.86;100.00;100010.16;1689272;84;20995;-69
2022/11/20 00:15:57;;;;;;;27.32;15.68;;;;;;;-4.86;100.00;100005.33;1666345;84;21030;-69
2022/11/20 00:18:25;;;;;;;22.87;14.25;;;;;;;-4.88;100.00;100008.63;1678244;84;21533;-70
2022/11/20 00:20:52;;;;;;;19.07;12.37;;;;;;;-4.94;100.00;100007.48;1679575;84;21078;-72
2022/11/20 00:23:19;;;;;;;;;;;;;;;-5.02;100.00;99999.02;1680214;84;21121;-71
2022/11/20 00:25:45;;;;;;;20.90;12.05;;;;;;;-5.05;100.00;100015.28;1670337;84;20180;-70
2022/11/20 00:28:12;;;;;;;20.75;13.22;;;;;;;-5.12;100.00;100027.55;1681380;84;21035;-70
2022/11/20 00:30:38;;;;;;;19.23;11.95;;;;;;;-5.13;100.00;100035.17;1711872;82;21565;-70
2022/11/20 00:33:04;;;;;;;20.23;12.68;;;;;;;-5.13;100.00;100035.67;1714370;82;21051;-70
2022/11/20 00:35:32;;;;;;;22.65;13.65;;;;;;;-5.13;100.00;100037.00;1718056;82;21059;-69
2022/11/20 00:37:58;;;;;;;25.25;14.18;;;;;;;-5.13;100.00;100033.84;1719909;82;21671;-70
2022/11/20 00:40:25;;;;;;;24.67;14.95;;;;;;;-5.11;100.00;100039.84;1714554;82;20944;-69
2022/11/20 00:42:52;;;;;;;26.93;14.83;;;;;;;-5.08;100.00;100038.19;1717042;82;21532;-70
2022/11/20 00:45:18;;;;;;;19.30;12.37;;;;;;;-5.06;100.00;100038.00;1719654;82;21505;-70
2022/11/20 00:47:45;;;;;;;21.37;13.65;;;;;;;-5.08;100.00;100042.16;1718756;82;21142;-70
2022/11/20 00:50:13;;;;;;;20.52;12.53;;;;;;;-5.11;100.00;100043.83;1717442;82;21542;-71
2022/11/20 00:52:40;;;;;;;23.20;14.93;;;;;;;-5.15;100.00;100048.29;1709371;82;21055;-69
2022/11/20 00:55:07;;;;;;;21.42;14.45;;;;;;;-5.23;100.00;100041.63;1725338;82;21560;-70
2022/11/20 00:57:34;;;;;;;21.60;13.53;;;;;;;-5.27;100.00;100028.34;1720086;82;21087;-71
2022/11/20 01:00:00;;;;;;;22.75;13.85;;;;;;;-5.26;100.00;100024.71;1717180;82;21054;-70
2022/11/20 01:02:27;;;;;;;22.95;14.13;;;;;;;-5.21;100.00;100012.59;1711677;82;21098;-69
2022/11/20 01:04:54;;;;;;;20.32;12.60;;;;;;;-5.19;100.00;100012.45;1710802;82;21523;-69
2022/11/20 01:07:21;;;;;;;;;;;;;;;-5.17;100.00;100006.49;1721074;82;21098;-69
2022/11/20 01:09:47;;;;;;;19.80;12.80;;;;;;;-5.19;100.00;100017.75;1711346;82;20388;-70
2022/11/20 01:12:13;;;;;;;22.20;13.70;;;;;;;-5.27;100.00;100025.20;1733963;82;21932;-70
2022/11/20 01:14:40;;;;;;;21.85;13.58;;;;;;;-5.26;100.00;100026.04;1737698;82;20986;-70
2022/11/20 01:17:06;;;;;;;;;;;;;;;-5.19;100.00;100027.88;1738338;82;21110;-69
2022/11/20 01:19:33;;;;;;;22.42;13.38;;;;;;;-5.15;100.00;100025.23;1732313;82;20409;-69
2022/11/20 01:22:00;;;;;;;24.67;13.68;;;;;;;-5.16;100.00;100016.92;1724980;82;21062;-69
2022/11/20 01:24:26;;;;;;;18.57;12.23;;;;;;;-5.15;100.00;100017.27;1737975;82;20974;-69
2022/11/20 01:26:53;;;;;;;21.70;12.90;;;;;;;-5.10;100.00;100016.27;1736930;82;21106;-69
2022/11/20 01:29:21;;;;;;;;;;;;;;;-5.08;100.00;100020.92;1738969;82;21007;-69
2022/11/20 01:31:48;;;;;;;;;;;;;;;-5.08;100.00;100018.77;1735055;82;20111;-69
2022/11/20 01:34:17;;;;;;;22.37;14.23;;;;;;;-5.10;100.00;100012.28;1729611;82;20510;-69
2022/11/20 01:36:44;;;;;;;24.02;16.27;;;;;;;-5.10;100.00;100014.13;1735064;82;21898;-70
2022/11/20 01:39:17;;;;;;;28.75;17.45;;;;;;;-5.02;100.00;100020.26;1736433;82;20975;-69
2022/11/20 01:44:57;;;;;;;22.32;15.80;;;;;;;-4.93;100.00;100025.58;1738610;82;21086;-69
2022/11/20 01:47:43;;;;;;;24.07;15.32;;;;;;;-4.90;100.00;100027.91;1723514;82;21141;-69
2022/11/20 01:50:25;;;;;;;24.10;14.45;;;;;;;-4.91;100.00;100035.03;1740835;82;21059;-69
2022/11/20 01:53:00;;;;;;;20.95;14.47;;;;;;;-4.99;100.00;100048.30;1725459;82;21157;-69
2022/11/20 01:55:31;;;;;;;25.90;15.58;;;;;;;-5.02;100.00;100046.81;1743247;82;20995;-69
2022/11/20 01:57:57;;;;;;;22.58;14.50;;;;;;;-4.97;100.00;100044.16;1739506;82;21027;-69
2022/11/20 02:00:24;;;;;;;22.90;14.18;;;;;;;-4.94;100.00;100051.30;1735712;82;21639;-69
2022/11/20 02:02:55;;;;;;;21.82;15.10;;;;;;;-4.94;100.00;100070.38;1744221;82;22283;-69
2022/11/20 02:05:47;;;;;;;25.40;15.25;;;;;;;-4.92;100.00;100079.83;1728102;82;20986;-69
2022/11/20 02:08:14;;;;;;;24.52;15.08;;;;;;;-4.90;100.00;100062.42;1734336;82;21110;-69
2022/11/20 02:10:40;;;;;;;25.05;16.67;;;;;;;-4.84;100.00;100053.78;1738453;82;22133;-69
2022/11/20 02:15:51;;;;;;;25.77;16.60;;;;;;;-4.76;100.00;100057.29;1723641;82;21476;-70
2022/11/20 02:18:19;;;;;;;;;;;;;;;-4.73;100.00;100071.56;1716958;82;21672;-70
2022/11/20 02:20:47;;;;;;;25.92;15.95;;;;;;;-4.74;100.00;100063.74;1716895;82;20269;-70
2022/11/20 02:23:35;;;;;;;24.82;15.98;;;;;;;-4.84;100.00;100067.06;1717581;82;21882;-71
2022/11/20 02:26:03;;;;;;;24.77;16.20;;;;;;;-4.83;100.00;100065.59;1705727;82;21669;-70
2022/11/20 02:28:29;;;;;;;28.17;16.37;;;;;;;-4.78;100.00;100068.55;1716957;82;20987;-71
2022/11/20 02:30:56;;;;;;;27.60;16.10;;;;;;;-4.76;100.00;100070.56;1726255;82;20980;-71
2022/11/20 02:33:22;;;;;;;28.50;17.35;;;;;;;-4.71;100.00;100064.24;1715612;82;21075;-70
2022/11/20 02:35:49;;;;;;;25.12;15.72;;;;;;;-4.65;100.00;100058.78;1727424;82;21032;-70
2022/11/20 02:38:16;;;;;;;26.93;17.00;;;;;;;-4.64;100.00;100055.13;1719916;82;21062;-69
2022/11/20 02:40:43;;;;;;;24.90;15.08;;;;;;;-4.64;100.00;100051.95;1719192;82;21495;-68
2022/11/20 02:43:09;;;;;;;20.45;13.70;;;;;;;-4.63;100.00;100060.76;1724656;82;21106;-69
2022/11/20 02:45:37;;;;;;;23.40;13.85;;;;;;;-4.64;100.00;100056.47;1724837;82;22054;-69
2022/11/20 02:48:05;;;;;;;;;;;;;;;-4.64;100.00;100060.45;1722083;82;21601;-69
2022/11/20 02:50:32;;;;;;;20.68;13.83;;;;;;;-4.63;100.00;100046.98;1730634;82;20452;-70
2022/11/20 02:52:59;;;;;;;23.80;15.20;;;;;;;-4.66;100.00;100065.91;1714116;82;21106;-69
2022/11/20 02:55:25;;;;;;;21.82;14.63;;;;;;;-4.62;100.00;100057.95;1713977;82;21007;-71
2022/11/20 02:57:53;;;;;;;22.98;14.55;;;;;;;-4.58;100.00;100063.27;1730028;82;21047;-69
2022/11/20 03:00:19;;;;;;;24.00;15.40;;;;;;;-4.54;100.00;100069.91;1710463;82;21518;-69
2022/11/20 03:02:45;;;;;;;25.17;14.85;;;;;;;-4.49;100.00;100067.22;1725556;82;21043;-69
2022/11/20 03:05:12;;;;;;;20.43;13.32;;;;;;;-4.44;100.00;100062.25;1721770;82;21043;-70
2022/11/20 03:07:38;;;;;;;24.47;14.87;;;;;;;-4.38;100.00;100066.39;1724212;82;21087;-70
2022/11/20 03:10:06;;;;;;;19.82;13.32;;;;;;;-4.37;100.00;100073.88;1718801;82;21024;-70
2022/11/20 03:12:34;;;;;;;20.20;13.75;;;;;;;-4.38;100.00;100082.83;1733030;81;21616;-70
2022/11/20 03:15:02;;;;;;;20.17;13.28;;;;;;;-4.37;100.00;100085.83;1737304;82;20936;-70
2022/11/20 03:17:29;;;;;;;23.92;14.73;;;;;;;-4.35;100.00;100094.45;1727990;82;21566;-70
2022/11/20 03:19:56;;;;;;;20.90;13.32;;;;;;;-4.34;100.00;100100.11;1726059;82;20995;-71
2022/11/20 03:22:23;;;;;;;20.70;14.38;;;;;;;-4.36;100.00;100088.33;1739333;82;21110;-70
2022/11/20 03:24:49;;;;;;;20.12;13.60;;;;;;;-4.34;100.00;100092.13;1737804;82;21003;-69
2022/11/20 03:27:16;;;;;;;;;;;;;;;-4.30;100.00;100090.80;1744436;82;21694;-70
2022/11/20 03:29:42;;;;;;;19.90;13.05;;;;;;;-4.26;100.00;100090.31;1738676;82;20556;-70
2022/11/20 03:32:09;;;;;;;19.85;12.50;;;;;;;-4.28;100.00;100083.48;1735371;82;21118;-69
2022/11/20 03:34:36;;;;;;;20.68;13.45;;;;;;;-4.26;100.00;100082.83;1726219;82;21035;-70
2022/11/20 03:37:02;;;;;;;21.07;13.22;;;;;;;-4.30;100.00;100074.36;1726251;82;21080;-70
2022/11/20 03:39:29;;;;;;;22.50;14.38;;;;;;;-4.33;100.00;100072.05;1730834;82;21624;-69
2022/11/20 03:41:55;;;;;;;21.07;13.58;;;;;;;-4.35;100.00;100071.86;1730195;82;21114;-70
2022/11/20 03:44:22;;;;;;;20.85;13.15;;;;;;;-4.39;100.00;100072.69;1724051;82;21352;-69
2022/11/20 03:46:48;;;;;;;;;;;;;;;-4.42;100.00;100064.23;1736990;82;21062;-69
2022/11/20 03:49:16;;;;;;;20.30;12.80;;;;;;;-4.45;100.00;100064.56;1743630;82;20146;-70
2022/11/20 03:51:42;;;;;;;20.82;13.53;;;;;;;-4.56;100.00;100074.55;1726688;82;21054;-69
2022/11/20 03:54:09;;;;;;;20.70;14.23;;;;;;;-4.55;100.00;100076.70;1728214;82;22364;-69
2022/11/20 03:56:37;;;;;;;23.65;13.43;;;;;;;-4.54;100.00;100077.05;1682502;82;21108;-69
2022/11/20 03:59:03;;;;;;;22.85;14.20;;;;;;;-4.54;100.00;100077.87;1726364;82;21034;-70
2022/11/20 04:01:33;;;;;;;22.30;13.68;;;;;;;-4.48;100.00;100080.84;1739199;82;21083;-69
2022/11/20 04:03:59;;;;;;;21.68;14.05;;;;;;;-4.46;100.00;100085.52;1736856;82;21066;-69
2022/11/20 04:06:29;;;;;;;21.60;13.72;;;;;;;-4.47;100.00;100079.86;1729831;82;21700;-69
2022/11/20 04:08:56;;;;;;;22.98;14.15;;;;;;;-4.45;100.00;100080.51;1737154;82;21494;-70
2022/11/20 04:11:32;;;;;;;24.25;13.60;;;;;;;-4.44;100.00;100075.53;1726977;82;21054;-70
2022/11/20 04:14:02;;;;;;;22.17;14.05;;;;;;;-4.42;100.00;100081.50;1733856;82;21058;-70
2022/11/20 04:16:34;;;;;;;23.73;14.98;;;;;;;-4.41;100.00;100084.00;1734131;82;21510;-69
2022/11/20 04:19:03;;;;;;;22.17;14.10;;;;;;;-4.35;100.00;100076.68;1717155;82;21039;-70
2022/11/20 04:21:29;;;;;;;19.37;12.82;;;;;;;-4.29;100.00;100074.70;1721163;82;21623;-68
2022/11/20 04:23:56;;;;;;;20.20;13.20;;;;;;;-4.22;100.00;100068.20;1718969;82;21074;-69
2022/11/20 04:26:24;;;;;;;23.05;14.25;;;;;;;-4.19;100.00;100062.55;1714826;82;21075;-68
2022/11/20 04:28:51;;;;;;;22.98;14.83;;;;;;;-4.14;100.00;100062.85;1714393;82;21054;-68
2022/11/20 04:31:27;;;;;;;21.73;14.03;;;;;;;-4.09;100.00;100063.19;1724561;82;21152;-68
2022/11/20 04:33:54;;;;;;;23.07;14.87;;;;;;;-4.10;100.00;100053.05;1718629;82;21643;-68
2022/11/20 04:36:23;;;;;;;24.27;14.47;;;;;;;-4.13;100.00;100040.59;1723134;82;21079;-68
2022/11/20 04:38:58;;;;;;;22.65;14.58;;;;;;;-4.18;100.00;100037.11;1721672;82;21106;-68
2022/11/20 04:41:26;;;;;;;21.10;13.85;;;;;;;-4.17;100.00;100041.43;1720573;82;21087;-69
2022/11/20 04:43:59;;;;;;;22.93;14.25;;;;;;;-4.16;100.00;100034.29;1715424;82;22279;-69
2022/11/20 04:46:25;;;;;;;23.07;15.13;;;;;;;-4.16;100.00;100012.52;1714055;82;21079;-69
2022/11/20 04:48:53;;;;;;;23.22;14.55;;;;;;;-4.16;100.00;100005.88;1714114;82;21043;-69
2022/11/20 04:51:19;;;;;;;;;;;;;;;-4.19;100.00;100003.56;1714636;82;21411;-71
2022/11/20 04:53:46;;;;;;;21.02;13.00;;;;;;;-4.23;100.00;100003.58;1713349;82;20141;-69
2022/11/20 04:56:12;;;;;;;25.20;13.80;;;;;;;-4.25;100.00;99999.44;1721750;82;21598;-69
2022/11/20 04:58:40;;;;;;;21.93;13.90;;;;;;;-4.25;100.00;99998.11;1717505;82;21436;-69
2022/11/20 05:01:12;;;;;;;22.65;14.07;;;;;;;-4.22;100.00;99991.95;1724245;82;21483;-69
2022/11/20 05:03:41;;;;;;;21.23;14.38;;;;;;;-4.20;100.00;99996.58;1719093;82;20960;-69
2022/11/20 05:06:08;;;;;;;22.87;15.13;;;;;;;-4.19;100.00;99990.77;1726806;82;21043;-68
2022/11/20 05:08:35;;;;;;;20.97;13.78;;;;;;;-4.20;100.00;99991.27;1729554;82;21019;-69
2022/11/20 05:11:09;;;;;;;19.98;13.28;;;;;;;-4.17;100.00;99995.41;1734456;82;21083;-70
2022/11/20 05:13:37;;;;;;;22.45;14.03;;;;;;;-4.16;100.00;100003.72;1714414;81;21563;-69
2022/11/20 05:16:17;;;;;;;22.22;14.75;;;;;;;-4.16;100.00;100003.22;1750367;81;21593;-69
2022/11/20 05:18:43;;;;;;;21.87;15.28;;;;;;;-4.15;100.00;100002.23;1748351;81;22144;-68
2022/11/20 05:21:12;;;;;;;26.73;17.20;;;;;;;-4.13;100.00;99987.42;1749259;81;21081;-69
2022/11/20 05:23:38;;;;;;;26.17;16.77;;;;;;;-4.13;100.00;99978.95;1738817;81;21042;-68
2022/11/20 05:26:06;;;;;;;27.77;17.55;;;;;;;-4.14;100.00;99980.44;1730979;81;21588;-69
2022/11/20 05:28:33;;;;;;;28.50;18.12;;;;;;;-4.16;100.00;99973.14;1731313;81;21066;-69
2022/11/20 05:31:08;;;;;;;28.87;17.35;;;;;;;-4.18;100.00;99970.64;1737794;81;21184;-70
2022/11/20 05:33:35;;;;;;;29.72;17.42;;;;;;;-4.24;100.00;99978.48;1750515;81;21058;-68
2022/11/20 05:36:03;;;;;;;32.33;19.00;;;;;;;-4.27;100.00;99990.78;1730507;81;21073;-69
2022/11/20 05:38:31;;;;;;;28.30;18.85;;;;;;;-4.27;100.00;99982.81;1750063;81;21071;-68
2022/11/20 05:41:13;;;;;;;29.32;18.02;;;;;;;-4.25;100.00;99989.61;1760210;81;21429;-68
2022/11/20 05:43:41;;;;;;;29.00;18.42;;;;;;;-4.23;100.00;99984.97;1744745;81;21042;-69
2022/11/20 05:46:09;;;;;;;31.77;19.80;;;;;;;-4.23;100.00;100001.41;1741387;81;21087;-69
2022/11/20 05:48:37;;;;;;;32.83;21.10;;;;;;;-4.17;100.00;99991.41;1746150;81;21038;-68
2022/11/20 05:51:04;;;;;;;35.30;22.05;;;;;;;-4.09;100.00;99984.75;1752518;81;21018;-68
2022/11/20 05:53:32;;;;;;;35.75;21.77;;;;;;;-4.06;100.00;99985.73;1729713;81;22183;-69
2022/11/20 05:56:10;;;;;;;32.50;20.82;;;;;;;-4.05;100.00;99984.73;1707380;81;21046;-69
2022/11/20 05:58:37;;;;;;;34.48;21.23;;;;;;;-4.00;100.00;99987.69;1725304;81;21101;-70
2022/11/20 06:01:20;;;;;;;39.23;22.17;;;;;;;-3.97;100.00;99995.35;1739827;81;21703;-70
2022/11/20 06:03:47;;;;;;;40.38;23.83;;;;;;;-3.96;100.00;99993.50;1738584;81;21042;-68
2022/11/20 06:06:14;;;;;;;41.77;22.80;;;;;;;-3.90;100.00;99992.33;1738412;81;21084;-69
2022/11/20 06:08:41;;;;;;;37.58;23.75;;;;;;;-3.83;100.00;99999.11;1746994;81;21006;-69
2022/11/20 06:11:09;;;;;;;36.83;23.73;;;;;;;-3.79;100.00;100001.77;1740306;81;21043;-69
2022/11/20 06:13:35;;;;;;;35.43;23.60;;;;;;;-3.75;100.00;99991.91;1730495;81;21011;-69
2022/11/20 06:16:04;;;;;;;38.45;24.07;;;;;;;-3.72;100.00;99994.22;1732342;82;21711;-68
2022/11/20 06:18:32;;;;;;;40.35;25.45;;;;;;;-3.64;100.00;99997.34;1735537;82;21570;-70
2022/11/20 06:21:05;;;;;;;38.60;25.12;;;;;;;-3.61;100.00;99991.17;1739918;82;21337;-68
2022/11/20 06:23:32;;;;;;;43.68;26.17;;;;;;;-3.57;100.00;99997.80;1730315;82;21557;-68
2022/11/20 06:26:05;;;;;;;46.28;29.37;;;;;;;-3.57;100.00;99991.15;1725443;82;21145;-68
2022/11/20 06:28:32;;;;;;;43.33;28.32;;;;;;;-3.56;100.00;99982.17;1731307;82;21419;-68
2022/11/20 06:30:58;;;;;;;46.60;28.00;;;;;;;-3.47;100.00;99986.13;1723935;82;21519;-68
2022/11/20 06:33:25;;;;;;;44.45;28.30;;;;;;;-3.39;100.00;99988.22;1726713;82;21027;-69
2022/11/20 06:35:51;;;;;;;44.42;27.82;;;;;;;-3.31;100.00;99980.69;1739192;82;21033;-69
2022/11/20 06:38:18;;;;;;;44.85;28.65;;;;;;;-3.25;100.00;99979.97;1723103;82;22178;-68
2022/11/20 06:40:45;;;;;;;46.85;30.17;;;;;;;-3.20;100.00;99972.29;1731188;82;20999;-69
2022/11/20 06:43:12;;;;;;;45.48;28.40;;;;;;;-3.18;100.00;99978.25;1741121;82;21066;-69
2022/11/20 06:45:39;;;;;;;49.40;30.30;;;;;;;-3.10;100.00;99971.54;1728410;82;21549;-68
2022/11/20 06:48:05;;;;;;;48.63;29.30;;;;;;;-3.07;100.00;99963.19;1727066;82;21494;-69
2022/11/20 06:50:31;;;;;;;47.50;28.20;;;;;;;-3.03;100.00;99960.00;1735911;82;21364;-68
2022/11/20 06:53:02;;;;;;;47.33;30.57;;;;;;;-2.98;100.00;99967.96;1744530;82;21118;-69
2022/11/20 06:55:29;;;;;;;44.65;29.70;;;;;;;-2.96;100.00;99984.58;1736039;82;20995;-69
2022/11/20 06:57:55;;;;;;;47.73;31.10;;;;;;;-2.93;100.00;99978.39;1729900;82;21070;-70
2022/11/20 07:00:22;;;;;;;48.95;31.68;;;;;;;-2.84;100.00;99989.32;1731991;82;21027;-70
2022/11/20 07:02:49;;;;;;;48.87;32.13;;;;;;;-2.80;100.00;99987.13;1733332;82;21043;-70
2022/11/20 07:05:17;;;;;;;54.55;33.83;;;;;;;-2.76;100.00;99973.23;1748849;82;21043;-70
2022/11/20 07:07:43;;;;;;;54.90;32.20;;;;;;;-2.74;100.00;99961.91;1745293;82;21050;-68
2022/11/20 07:10:10;;;;;;;61.83;42.15;;;;;;;-2.68;100.00;99957.69;1742293;82;21612;-69
2022/11/20 07:12:38;;;;;;;91.37;57.65;;;;;;;-2.66;100.00;99957.81;1732314;82;21707;-69
2022/11/20 07:15:06;;;;;;;81.75;49.55;;;;;;;-2.60;100.00;99960.28;1723980;82;21054;-68
2022/11/20 07:17:34;;;;;;;65.78;41.75;;;;;;;-2.59;100.00;99961.94;1734188;82;21145;-68
2022/11/20 07:20:01;;;;;;;57.62;36.42;;;;;;;-2.61;100.00;99961.28;1722689;82;21026;-69
2022/11/20 07:22:28;;;;;;;59.65;35.13;;;;;;;-2.57;100.00;99970.08;1720955;82;21149;-69
2022/11/20 07:24:55;;;;;;;57.25;36.15;;;;;;;-2.53;100.00;99974.03;1730824;82;21066;-68
2022/11/20 07:28:49;;;;;;;57.25;36.60;;;;;;;-2.43;100.00;99971.09;1814465;78;22599;-68
2022/11/20 07:31:16;;;;;;;59.23;36.73;;;;;;;-2.42;100.00;99991.42;1786974;78;21070;-68
2022/11/20 07:33:44;;;;;;;61.02;37.70;;;;;;;-2.34;100.00;100002.02;1763439;78;21038;-68
2022/11/20 07:36:11;;;;;;;56.88;36.80;;;;;;;-2.31;100.00;100008.31;1783951;80;21141;-68
2022/11/20 07:38:37;;;;;;;;;;;;;;;-2.26;100.00;100003.73;1789252;78;21502;-68
2022/11/20 07:41:04;;;;;;;55.60;34.60;;;;;;;-2.16;100.00;100004.33;1776418;78;20428;-68
2022/11/20 07:43:31;;;;;;;54.95;35.78;;;;;;;-2.16;100.00;99994.98;1775455;78;21528;-69
2022/11/20 07:45:59;;;;;;;59.77;40.45;;;;;;;-2.09;100.00;99987.91;1783239;78;21042;-69
2022/11/20 07:48:26;;;;;;;54.18;35.38;;;;;;;-2.01;100.00;99981.13;1715045;81;21389;-69
2022/11/20 07:50:56;;;;;;;50.30;32.53;;;;;;;-1.94;100.00;99962.53;1726168;81;21020;-69
2022/11/20 07:53:23;;;;;;;71.85;45.00;;;;;;;-1.87;100.00;99950.92;1722205;81;21046;-70
2022/11/20 07:55:52;;;;;;;73.45;44.35;;;;;;;-1.83;100.00;99945.54;1716098;81;21063;-68
2022/11/20 07:58:19;;;;;;;60.43;38.63;;;;;;;-1.80;100.00;99934.99;1717025;81;21095;-68
2022/11/20 08:00:46;;;;;;;54.85;34.80;;;;;;;-1.82;100.00;99936.53;1712887;81;21034;-69
2022/11/20 08:03:13;;;;;;;55.35;36.28;;;;;;;-1.86;100.00;99925.91;1727966;81;21428;-69
2022/11/20 08:05:40;;;;;;;54.98;36.53;;;;;;;-1.88;100.00;99931.13;1724411;82;21409;-69
2022/11/20 08:08:07;;;;;;;48.48;33.70;;;;;;;-1.85;100.00;99941.41;1710507;84;21159;-70
2022/11/20 08:10:34;;;;;;;51.55;34.65;;;;;;;-1.85;100.00;99948.92;1715140;81;21119;-71
2022/11/20 08:15:49;;;;;;;53.02;34.25;;;;;;;-1.83;100.00;99955.38;1711756;81;21585;-69
2022/11/20 08:18:17;;;;;;;51.20;35.17;;;;;;;-1.71;100.00;99957.91;1719182;83;21000;-69
2022/11/20 08:20:45;;;;;;;60.25;37.53;;;;;;;-1.69;100.00;99940.68;1719200;81;21547;-70
2022/11/20 08:23:13;;;;;;;57.93;39.25;;;;;;;-1.64;100.00;99947.63;1718051;83;21034;-69
2022/11/20 08:25:39;;;;;;;55.60;35.95;;;;;;;-1.62;100.00;99954.92;1713241;81;21013;-69
2022/11/20 08:28:08;;;;;;;55.05;36.00;;;;;;;-1.61;100.00;99945.91;1705738;83;21109;-69
2022/11/20 08:30:36;;;;;;;49.67;33.98;;;;;;;-1.54;100.00;99943.31;1687216;84;21049;-69
2022/11/20 08:33:05;;;;;;;51.98;33.50;;;;;;;-1.52;100.00;99943.44;1676436;84;21065;-70
2022/11/20 08:35:37;;;;;;;46.28;31.97;;;;;;;-1.43;100.00;99945.99;1697795;84;21077;-70
2022/11/20 08:38:04;;;;;;;55.05;34.40;;;;;;;-1.39;100.00;99955.28;1684781;84;21105;-70
2022/11/20 08:40:31;;;;;;;45.35;31.30;;;;;;;-1.35;100.00;99951.22;1688786;84;20963;-70
2022/11/20 08:45:57;;;;;;;49.00;31.77;;;;;;;-1.29;100.00;99947.28;1770307;79;22986;-70
2022/11/20 08:48:24;;;;;;;45.67;31.27;;;;;;;-1.30;100.00;99945.62;1725114;81;21034;-71
2022/11/20 08:50:51;;;;;;;47.83;33.55;;;;;;;-1.23;100.00;99940.33;1716528;83;21058;-71
2022/11/20 08:53:17;;;;;;;44.03;30.82;;;;;;;-1.19;100.00;99913.06;1717119;81;21007;-72
2022/11/20 08:55:43;;;;;;;47.70;30.95;;;;;;;-1.13;100.00;99903.44;1713938;83;21082;-73
2022/11/20 08:58:10;;;;;;;42.85;29.95;;;;;;;-1.11;100.00;99895.56;1716753;83;21038;-72
2022/11/20 09:00:37;;;;;;;45.88;29.95;;;;;;;-1.09;100.00;99896.19;1721534;81;21589;-72
2022/11/20 09:03:04;;;;;;;35.92;24.75;;;;;;;-1.07;100.00;99900.02;1725274;82;21071;-70
2022/11/20 09:05:30;;;;;;;44.63;28.75;;;;;;;-1.09;100.00;99899.36;1706768;82;21058;-69
2022/11/20 09:07:58;;;;;;;36.40;24.52;;;;;;;-1.09;100.00;99898.86;1720460;81;21131;-72
2022/11/20 09:10:26;;;;;;;35.88;24.23;;;;;;;-1.12;100.00;99889.90;1717849;82;21065;-70
2022/11/20 09:12:58;;;;;;;43.48;30.43;;;;;;;-1.16;100.00;99885.95;1722955;82;21054;-70
2022/11/20 09:15:23;;;;;;;36.23;26.07;;;;;;;-1.21;100.00;99886.23;1700074;82;21659;-70
2022/11/20 09:17:58;;;;;;;37.25;25.72;;;;;;;-1.24;100.00;99891.42;1720550;82;21704;-70
2022/11/20 09:20:26;;;;;;;32.55;21.95;;;;;;;-1.29;100.00;99888.52;1700516;82;21537;-69
2022/11/20 09:22:54;;;;;;;31.48;21.77;;;;;;;-1.29;100.00;99872.49;1716862;82;21164;-69
2022/11/20 09:25:20;;;;;;;;;;;;;;;-1.29;100.00;99871.16;1722852;83;21489;-70
2022/11/20 09:27:47;;;;;;;27.32;18.73;;;;;;;-1.27;100.00;99869.61;1712894;81;20545;-70
2022/11/20 09:30:14;;;;;;;27.65;19.30;;;;;;;-1.29;100.00;99864.98;1718217;81;21544;-70
2022/11/20 09:32:42;;;;;;;28.20;20.27;;;;;;;-1.30;100.00;99857.48;1714554;81;21719;-70
2022/11/20 09:35:09;;;;;;;27.22;19.87;;;;;;;-1.27;100.00;99854.42;1721438;82;21078;-71
2022/11/20 09:37:35;;;;;;;;;;;;;;;-1.20;100.00;99855.80;1714758;83;21070;-70
2022/11/20 09:40:04;;;;;;;31.10;22.30;;;;;;;-1.18;100.00;99849.27;1715287;82;20165;-70
2022/11/20 09:43:11;;;;;;;27.42;20.32;;;;;;;-1.18;100.00;99855.95;1715145;83;21093;-70
2022/11/20 09:45:59;;;;;;;27.80;19.30;;;;;;;-1.13;100.00;99860.69;1719510;83;21145;-72
2022/11/20 09:48:41;;;;;;;27.42;18.90;;;;;;;-1.15;100.00;99854.73;1710648;83;21917;-70
2022/11/20 09:51:31;;;;;;;26.68;18.17;;;;;;;-1.12;100.00;99848.99;1707323;82;21147;-70
2022/11/20 09:54:18;;;;;;;26.80;19.23;;;;;;;-1.09;100.00;99838.75;1702523;83;21875;-73
2022/11/20 09:57:02;;;;;;;28.17;19.15;;;;;;;-1.10;100.00;99837.08;1700377;82;21574;-71
2022/11/20 09:59:39;;;;;;;29.95;19.73;;;;;;;-1.10;100.00;99841.09;1716550;83;21758;-71
2022/11/20 10:02:20;;;;;;;27.15;19.85;;;;;;;-1.08;100.00;99842.25;1692494;83;21071;-71
2022/11/20 10:05:04;;;;;;;26.70;19.80;;;;;;;-1.07;100.00;99843.41;1662422;83;21058;-68
2022/11/20 10:07:56;;;;;;;27.30;18.98;;;;;;;-1.06;100.00;99833.52;1706358;83;21572;-71
2022/11/20 10:10:36;;;;;;;25.45;17.50;;;;;;;-1.04;100.00;99823.48;1696631;82;21034;-70
2022/11/20 10:13:33;;;;;;;27.13;19.37;;;;;;;-1.01;100.00;99809.72;1713582;83;21082;-71
2022/11/20 10:16:20;;;;;;;31.50;21.73;;;;;;;-1.00;100.00;99803.37;1709506;82;21123;-70
2022/11/20 10:19:04;;;;;;;27.50;19.07;;;;;;;-0.95;100.00;99800.91;1687828;82;21597;-72
2022/11/20 10:21:51;;;;;;;26.23;19.17;;;;;;;-0.93;100.00;99799.39;1633845;86;21118;-71
2022/11/20 10:25:02;;;;;;;25.27;18.83;;;;;;;-0.89;100.00;99804.67;1710725;82;21112;-74
2022/11/20 10:27:58;;;;;;;40.58;29.12;;;;;;;-0.88;100.00;99803.63;1718931;83;21130;-71
2022/11/20 10:30:26;;;;;;;29.25;21.00;;;;;;;-0.88;100.00;99800.95;1690153;83;21072;-71
2022/11/20 10:33:00;;;;;;;23.85;18.15;;;;;;;-0.86;100.00;99805.10;1684147;83;21067;-72
2022/11/20 10:35:40;;;;;;;25.72;19.73;;;;;;;-0.80;100.00;99800.80;1712785;82;21090;-71
2022/11/20 10:38:18;;;;;;;26.73;19.10;;;;;;;-0.77;100.00;99788.37;1705362;83;21085;-70
2022/11/20 10:40:49;;;;;;;22.58;17.40;;;;;;;-0.71;100.00;99795.63;1708092;82;21102;-72
2022/11/20 10:43:23;;;;;;;23.15;18.12;;;;;;;-0.71;100.00;99792.41;1707088;83;21015;-72
2022/11/20 10:46:00;;;;;;;23.47;18.57;;;;;;;-0.71;100.00;99788.41;1699068;82;21657;-72
2022/11/20 10:48:27;;;;;;;;;;;;;;;-0.69;100.00;99782.88;1718159;82;21545;-72
2022/11/20 10:51:17;;;;;;;27.95;20.10;;;;;;;-0.77;100.00;99766.48;1716642;82;20140;-73
2022/11/20 10:54:21;;;;;;;27.42;20.08;;;;;;;-0.78;100.00;99772.84;1708711;82;21525;-74
2022/11/20 10:56:53;;;;;;;26.75;20.00;;;;;;;-0.73;100.00;99774.42;1656112;83;21534;-73
2022/11/20 10:59:34;;;;;;;26.12;19.87;;;;;;;-0.69;100.00;99771.67;1712144;83;21482;-72
2022/11/20 11:02:33;;;;;;;28.12;21.30;;;;;;;-0.66;100.00;99761.91;1701464;82;21561;-71
2022/11/20 11:05:12;;;;;;;29.00;18.85;;;;;;;-0.64;100.00;99754.50;1673105;83;21062;-72
2022/11/20 11:07:40;;;;;;;30.72;22.22;;;;;;;-0.72;100.00;99769.41;1702499;82;21648;-74
2022/11/20 11:10:21;;;;;;;30.95;21.35;;;;;;;-0.76;100.00;99761.46;1697653;82;21139;-74
2022/11/20 11:12:52;;;;;;;28.38;21.70;;;;;;;-0.76;100.00;99758.78;1708187;82;21379;-71
2022/11/20 11:15:30;;;;;;;28.50;21.75;;;;;;;-0.74;100.00;99743.87;1713631;82;21056;-71
2022/11/20 11:17:57;;;;;;;30.27;21.68;;;;;;;-0.71;100.00;99741.63;1701926;82;21138;-71
2022/11/20 11:20:25;;;;;;;31.05;22.77;;;;;;;-0.70;100.00;99758.49;1704386;82;21086;-71
2022/11/20 11:22:55;;;;;;;33.08;22.93;;;;;;;-0.72;100.00;99766.73;1703074;82;21090;-71
2022/11/20 11:25:35;;;;;;;29.98;22.73;;;;;;;-0.71;100.00;99766.22;1707852;82;21375;-69
2022/11/20 11:28:20;;;;;;;43.90;30.43;;;;;;;-0.72;100.00;99755.20;1716609;82;21099;-72
2022/11/20 11:30:49;;;;;;;30.75;22.35;;;;;;;-0.76;100.00;99759.30;1706432;82;21110;-72
2022/11/20 11:33:24;;;;;;;28.10;20.97;;;;;;;-0.76;100.00;99766.80;1717092;83;21031;-72
2022/11/20 11:36:02;;;;;;;30.35;22.35;;;;;;;-0.75;100.00;99749.75;1715281;82;21054;-72